Time;durP1;ratioP1;P1;durP2;ratioP2;P2;SDS_P1;SDS_P2;PMS_P1;PMS_P2;Temp;Humidity;BMP_temperature;BMP_pressure;BME280_temperature;BME280_humidity;BME280_pressure;Samples;Min_cycle;Max_cycle;Signal;HPM_P1;HPM_P2
2022/05/05 00:00:58;;;;;;;5.73;4.67;;;;;;;11.29;65.83;101743.78;2105143;28;20231;-67
2022/05/05 00:01:59;;;;;;;5.43;4.47;;;;;;;10.81;66.08;101668.09;2106085;28;20182;-67
2022/05/05 00:02:59;;;;;;;6.27;4.87;;;;;;;11.26;65.79;101744.56;2106204;28;20237;-67
2022/05/05 00:04:01;;;;;;;5.80;4.90;;;;;;;10.57;66.30;101646.91;2105511;28;20217;-67
2022/05/05 00:05:03;;;;;;;6.03;5.03;;;;;;;10.62;66.16;101644.50;2105384;28;20177;-67
2022/05/05 00:06:04;;;;;;;9.47;5.40;;;;;;;11.29;66.46;101743.78;2105932;28;20474;-67
2022/05/05 00:07:04;;;;;;;5.73;5.17;;;;;;;11.29;66.38;101744.56;2106161;28;20922;-67
2022/05/05 00:08:05;;;;;;;8.33;4.97;;;;;;;10.95;66.75;101699.28;2105006;28;20199;-67
2022/05/05 00:09:06;;;;;;;6.60;5.13;;;;;;;11.28;66.86;101742.97;2105495;28;20242;-67
2022/05/05 00:14:23;;;;;;;6.10;5.23;;;;;;;11.30;66.85;101745.34;2105881;28;20166;-67
2022/05/05 00:14:27;;;;;;;6.57;4.97;;;;;;;10.93;66.49;101673.94;2087878;28;21029;-67
2022/05/05 00:15:28;;;;;;;6.30;5.10;;;;;;;11.36;66.73;101741.72;2105615;28;20897;-67
2022/05/05 00:16:29;;;;;;;5.67;5.10;;;;;;;10.47;66.75;101604.22;2105689;28;20786;-67
2022/05/05 00:17:32;;;;;;;6.67;5.40;;;;;;;11.06;66.94;101696.44;2106145;28;20925;-67
2022/05/05 00:18:33;;;;;;;6.27;5.63;;;;;;;11.32;67.10;101742.97;2105814;28;20675;-67
2022/05/05 00:19:36;;;;;;;5.60;4.90;;;;;;;10.97;67.22;101696.09;2105802;28;20852;-67
2022/05/05 00:20:37;;;;;;;5.80;5.23;;;;;;;11.32;67.42;101745.72;2105329;28;20175;-67
2022/05/05 00:21:38;;;;;;;9.67;5.00;;;;;;;11.35;67.43;101753.22;2105841;28;20423;-67
2022/05/05 00:22:39;;;;;;;4.97;4.43;;;;;;;10.88;67.52;101671.63;2105572;28;20182;-67
2022/05/05 00:23:39;;;;;;;8.07;4.53;;;;;;;11.41;67.18;101755.16;2105837;28;20404;-67
2022/05/05 00:24:40;;;;;;;5.33;4.80;;;;;;;11.42;66.86;101748.41;2105377;28;20181;-67
2022/05/05 00:25:40;;;;;;;7.63;4.17;;;;;;;11.43;66.47;101749.97;2104814;28;20256;-67
2022/05/05 00:26:41;;;;;;;5.27;4.40;;;;;;;11.42;66.27;101742.84;2105295;28;20178;-67
2022/05/05 00:27:41;;;;;;;5.00;4.10;;;;;;;11.36;65.66;101744.50;2105988;28;20176;-67
2022/05/05 00:28:42;;;;;;;8.17;5.40;;;;;;;11.25;66.10;101724.38;2105131;28;20674;-67
2022/05/05 00:29:42;;;;;;;9.77;6.83;;;;;;;10.77;66.91;101672.88;2105071;28;20182;-67
2022/05/05 00:30:43;;;;;;;5.60;5.10;;;;;;;11.31;66.97;101741.34;2105164;28;20266;-67
2022/05/05 00:31:44;;;;;;;6.37;4.63;;;;;;;11.32;66.71;101742.97;2105584;28;20232;-67
2022/05/05 00:32:45;;;;;;;5.43;4.33;;;;;;;11.33;66.38;101744.53;2105810;28;20644;-67
2022/05/05 00:33:45;;;;;;;5.30;4.67;;;;;;;11.16;66.03;101712.16;2105864;28;20777;-67
2022/05/05 00:34:46;;;;;;;6.40;4.60;;;;;;;11.34;65.41;101749.69;2105101;28;20618;-67
2022/05/05 00:35:46;;;;;;;6.97;5.23;;;;;;;11.36;65.53;101738.13;2105606;28;20182;-67
2022/05/05 00:36:47;;;;;;;9.60;5.83;;;;;;;11.37;65.96;101742.53;2105852;28;20182;-67
2022/05/05 00:37:47;;;;;;;8.90;6.10;;;;;;;11.36;66.79;101743.69;2105042;28;20174;-67
2022/05/05 00:38:48;;;;;;;6.77;4.97;;;;;;;11.05;66.97;101692.06;2105793;28;20189;-67
2022/05/05 00:39:48;;;;;;;7.07;5.57;;;;;;;11.33;66.61;101727.88;2105584;28;20174;-67
2022/05/05 00:40:49;;;;;;;6.63;5.07;;;;;;;11.38;66.58;101739.31;2105050;28;20230;-67
2022/05/05 00:41:51;;;;;;;6.20;4.83;;;;;;;11.25;66.23;101718.84;2105887;28;20564;-67
2022/05/05 00:42:52;;;;;;;6.87;4.37;;;;;;;11.29;66.18;101722.38;2105455;28;20693;-67
2022/05/05 00:43:52;;;;;;;5.77;5.10;;;;;;;11.42;66.17;101742.06;2104729;28;20973;-67
2022/05/05 00:44:53;;;;;;;6.60;5.10;;;;;;;11.41;66.33;101740.47;2104411;28;20177;-67
2022/05/05 00:45:53;;;;;;;8.27;5.10;;;;;;;11.41;66.02;101740.47;2105433;28;20174;-67
2022/05/05 00:46:54;;;;;;;6.50;5.20;;;;;;;11.40;65.99;101738.91;2105642;28;20186;-67
2022/05/05 00:48:08;;;;;;;7.30;5.10;;;;;;;11.39;65.97;101743.69;2105667;28;20544;-67
2022/05/05 00:49:09;;;;;;;5.23;4.73;;;;;;;11.41;65.95;101741.28;2105838;28;20675;-67
2022/05/05 00:50:11;;;;;;;6.80;5.10;;;;;;;10.82;65.67;101653.81;2105278;28;20803;-67
2022/05/05 00:51:11;;;;;;;7.80;5.17;;;;;;;11.43;65.82;101741.63;2105243;28;20178;-67
2022/05/05 00:52:12;;;;;;;7.73;5.13;;;;;;;11.46;65.95;101735.28;2105631;28;20911;-67
2022/05/05 00:53:12;;;;;;;9.03;5.83;;;;;;;11.44;65.91;101726.59;2105830;28;20270;-67
2022/05/05 00:54:13;;;;;;;11.90;5.93;;;;;;;11.46;66.05;101731.69;2105351;28;20174;-67
2022/05/05 00:55:14;;;;;;;9.93;5.23;;;;;;;10.90;65.81;101649.00;2105090;28;20209;-67
2022/05/05 00:56:16;;;;;;;11.70;5.83;;;;;;;11.46;66.13;101738.06;2105465;28;20173;-67
2022/05/05 00:57:17;;;;;;;6.40;5.30;;;;;;;10.66;66.04;101616.75;2105856;28;20249;-67
2022/05/05 00:58:18;;;;;;;8.13;5.63;;;;;;;11.44;66.20;101739.66;2105583;28;20416;-67
2022/05/05 00:59:19;;;;;;;7.33;5.53;;;;;;;10.69;66.33;101625.03;2105905;28;20419;-67
2022/05/05 01:00:20;;;;;;;6.67;5.27;;;;;;;11.31;66.37;101717.19;2104724;28;20920;-67
2022/05/05 01:01:22;;;;;;;8.63;5.60;;;;;;;11.45;66.61;101738.47;2105664;28;20175;-67
2022/05/05 01:02:22;;;;;;;6.53;5.23;;;;;;;11.49;66.35;101739.22;2105557;28;20178;-67
2022/05/05 01:03:23;;;;;;;7.43;5.30;;;;;;;11.51;66.29;101742.34;2105626;28;20487;-67
2022/05/05 01:04:25;;;;;;;8.33;5.57;;;;;;;10.68;66.34;101608.78;2105246;28;20189;-67
2022/05/05 01:05:30;;;;;;;6.37;4.90;;;;;;;11.23;66.06;101695.47;2104898;28;20420;-67
2022/05/05 01:06:30;;;;;;;6.63;5.10;;;;;;;11.44;65.69;101725.78;2105573;28;20422;-67
2022/05/05 01:07:31;;;;;;;6.03;5.00;;;;;;;11.52;65.42;101741.94;2105685;28;20447;-67
2022/05/05 01:08:36;;;;;;;7.63;4.87;;;;;;;11.47;65.06;101742.41;2105447;28;20235;-67
2022/05/05 01:09:36;;;;;;;8.30;4.30;;;;;;;10.95;64.48;101666.00;2105713;28;20178;-67
2022/05/05 01:10:37;;;;;;;5.23;4.43;;;;;;;11.36;64.01;101729.81;2104594;28;20452;-67
2022/05/05 01:11:38;;;;;;;4.40;4.00;;;;;;;11.42;63.80;101750.41;2105515;28;20178;-67
2022/05/05 01:12:38;;;;;;;7.30;5.00;;;;;;;11.32;63.80;101745.72;2105494;28;20177;-67
2022/05/05 01:13:40;;;;;;;6.53;5.43;;;;;;;11.34;64.14;101748.88;2105613;28;20248;-66
2022/05/05 01:14:41;;;;;;;8.00;6.00;;;;;;;11.30;64.25;101751.69;2104836;28;20238;-67
2022/05/05 01:15:42;;;;;;;7.40;5.30;;;;;;;10.62;64.47;101663.09;2105046;28;20454;-67
2022/05/05 01:16:42;;;;;;;6.83;4.77;;;;;;;11.25;63.84;101749.34;2105528;28;20172;-68
2022/05/05 01:17:43;;;;;;;5.97;4.47;;;;;;;11.24;63.48;101752.53;2105474;28;20170;-67
2022/05/05 01:18:44;;;;;;;5.70;4.50;;;;;;;11.18;62.99;101752.16;2105498;28;20174;-67
2022/05/05 01:19:45;;;;;;;4.97;4.47;;;;;;;11.14;62.62;101750.63;2105485;28;20610;-67
2022/05/05 01:20:47;;;;;;;5.47;4.43;;;;;;;11.12;62.94;101762.13;2104588;28;20181;-67
2022/05/05 01:21:55;;;;;;;5.67;4.70;;;;;;;11.04;62.53;101755.09;2105331;28;20189;-67
2022/05/05 01:22:55;;;;;;;4.97;4.10;;;;;;;10.71;61.82;101724.44;2105193;28;20968;-67
2022/05/05 01:23:56;;;;;;;4.13;3.73;;;;;;;10.74;61.29;101756.88;2105315;28;20825;-67
2022/05/05 01:28:54;;;;;;;5.32;4.80;;;;;;;10.28;61.98;101767.44;2105510;28;20243;-67
2022/05/05 01:29:55;;;;;;;6.75;5.18;;;;;;;9.63;61.95;101673.13;2105311;28;20176;-67
2022/05/05 01:30:56;;;;;;;5.80;4.72;;;;;;;10.03;62.55;101753.66;2103866;28;20173;-67
2022/05/05 01:31:57;;;;;;;7.53;5.00;;;;;;;10.04;62.60;101762.78;2104740;28;20701;-67
2022/05/05 01:32:58;;;;;;;7.35;5.28;;;;;;;9.96;62.88;101762.00;2105553;28;20168;-67
2022/05/05 01:33:58;;;;;;;6.43;5.10;;;;;;;9.90;62.82;101762.81;2105408;28;20171;-67
2022/05/05 01:35:00;;;;;;;5.60;5.00;;;;;;;9.85;63.48;101765.97;2104876;28;20645;-67
2022/05/05 01:36:00;;;;;;;7.45;5.40;;;;;;;9.78;63.29;101760.47;2105205;28;20201;-67
2022/05/05 01:37:01;;;;;;;6.40;5.30;;;;;;;9.62;63.54;101740.72;2104808;28;20316;-67
2022/05/05 01:38:01;;;;;;;7.33;5.23;;;;;;;9.62;64.09;101744.28;2104651;28;20233;-67
2022/05/05 01:39:02;;;;;;;7.30;5.37;;;;;;;9.74;63.96;101760.47;2105516;28;20896;-67
2022/05/05 01:40:02;;;;;;;7.43;5.50;;;;;;;9.74;64.07;101762.44;2105264;28;20693;-67
2022/05/05 01:41:11;;;;;;;4.77;4.37;;;;;;;9.56;64.52;101734.81;2104611;28;20686;-67
2022/05/05 01:42:11;;;;;;;6.90;5.25;;;;;;;9.66;64.57;101747.84;2105365;28;20155;-67
2022/05/05 01:43:16;;;;;;;6.97;5.20;;;;;;;8.81;64.18;101613.63;2105423;28;20964;-67
2022/05/05 01:44:17;;;;;;;8.30;5.25;;;;;;;9.36;64.77;101697.69;2103833;28;20183;-67
2022/05/05 01:45:17;;;;;;;8.23;5.70;;;;;;;9.81;64.90;101766.00;2104198;28;20710;-67
2022/05/05 01:46:18;;;;;;;8.77;5.37;;;;;;;9.82;64.92;101770.34;2105201;28;20175;-67
2022/05/05 01:47:18;;;;;;;6.10;4.90;;;;;;;9.47;64.43;101712.28;2105541;28;20171;-67
2022/05/05 01:48:19;;;;;;;5.30;4.80;;;;;;;9.83;64.39;101774.69;2105310;28;20683;-67
2022/05/05 01:49:19;;;;;;;5.23;4.70;;;;;;;9.83;64.86;101768.34;2105731;28;20190;-67
2022/05/05 01:50:20;;;;;;;7.67;4.90;;;;;;;9.58;65.13;101734.41;2104561;28;20572;-67
2022/05/05 01:51:20;;;;;;;5.00;4.50;;;;;;;9.81;64.82;101768.75;2105131;28;20250;-67
2022/05/05 01:52:21;;;;;;;5.30;4.80;;;;;;;8.77;65.14;101596.25;2105288;28;20644;-67
2022/05/05 01:53:22;;;;;;;6.53;4.67;;;;;;;9.84;65.12;101770.72;2105574;28;20641;-67
2022/05/05 01:54:22;;;;;;;5.93;5.00;;;;;;;9.84;65.45;101775.47;2105057;28;20175;-67
2022/05/05 01:55:23;;;;;;;8.63;5.40;;;;;;;9.75;65.29;101781.44;2105593;28;20237;-67
2022/05/05 01:56:23;;;;;;;11.67;5.93;;;;;;;9.61;65.42;101766.81;2106821;28;20179;-67
2022/05/05 01:57:24;;;;;;;10.10;5.30;;;;;;;9.66;65.49;101775.53;2107160;28;20182;-67
2022/05/05 01:58:24;;;;;;;8.43;5.30;;;;;;;9.61;65.63;101777.88;2106905;28;20582;-67
2022/05/05 01:59:25;;;;;;;7.03;5.30;;;;;;;9.58;65.86;101768.41;2107171;28;20559;-67
2022/05/05 02:00:26;;;;;;;8.80;5.70;;;;;;;9.55;65.92;101771.19;2106236;28;20581;-67
2022/05/05 02:01:26;;;;;;;8.27;5.40;;;;;;;9.54;65.88;101778.69;2106822;28;20684;-67
2022/05/05 02:02:27;;;;;;;7.20;5.27;;;;;;;9.56;66.26;101770.00;2106893;28;20336;-67
2022/05/05 02:03:27;;;;;;;6.20;5.10;;;;;;;9.57;66.02;101763.25;2106935;28;20659;-67
2022/05/05 02:04:28;;;;;;;8.23;5.20;;;;;;;9.47;66.23;101762.09;2106546;28;20566;-67
2022/05/05 02:05:28;;;;;;;6.70;5.30;;;;;;;9.41;66.18;101765.66;2106393;28;20171;-67
2022/05/05 02:06:29;;;;;;;6.30;5.10;;;;;;;9.19;66.24;101740.00;2106594;28;20171;-67
2022/05/05 02:07:29;;;;;;;6.53;5.07;;;;;;;9.40;67.39;101764.88;2107080;28;20172;-67
2022/05/05 02:08:30;;;;;;;5.73;5.17;;;;;;;9.40;67.53;101777.91;2106635;28;20261;-67
2022/05/05 02:09:30;;;;;;;8.10;5.27;;;;;;;9.49;67.73;101773.53;2107163;28;20620;-67
2022/05/05 02:10:31;;;;;;;5.90;5.10;;;;;;;9.46;67.76;101762.50;2106021;28;20175;-67
2022/05/05 02:11:31;;;;;;;5.77;4.90;;;;;;;9.46;68.17;101774.34;2106830;28;20171;-67
2022/05/05 02:12:33;;;;;;;6.40;4.87;;;;;;;9.44;68.35;101771.19;2106666;28;20249;-66
2022/05/05 02:13:33;;;;;;;5.50;5.00;;;;;;;9.49;68.47;101770.78;2106967;28;20175;-67
2022/05/05 02:14:34;;;;;;;6.73;5.23;;;;;;;9.21;67.98;101726.56;2106522;28;20225;-67
2022/05/05 02:15:35;;;;;;;5.37;4.87;;;;;;;9.51;68.57;101767.63;2106305;28;20233;-66
2022/05/05 02:16:35;;;;;;;6.30;5.33;;;;;;;9.55;68.65;101771.97;2106613;28;20258;-67
2022/05/05 02:17:37;;;;;;;6.00;5.07;;;;;;;9.52;68.89;101777.50;2106946;28;20201;-66
2022/05/05 02:18:37;;;;;;;7.00;5.25;;;;;;;9.55;68.86;101771.97;2106697;28;20594;-66
2022/05/05 02:19:39;;;;;;;6.13;5.00;;;;;;;8.91;68.58;101664.56;2106783;28;20176;-66
2022/05/05 02:20:40;;;;;;;6.50;5.20;;;;;;;9.38;68.47;101734.03;2106300;28;20176;-66
2022/05/05 02:21:41;;;;;;;7.10;5.27;;;;;;;9.68;68.85;101783.44;2106409;28;20171;-66
2022/05/05 02:22:41;;;;;;;6.10;4.80;;;;;;;9.71;68.44;101777.88;2106557;28;20196;-66
2022/05/05 02:23:42;;;;;;;6.40;4.87;;;;;;;9.76;68.73;101777.47;2106054;28;20199;-66
2022/05/05 02:24:42;;;;;;;8.40;5.00;;;;;;;9.78;68.73;101777.84;2105733;28;20271;-66
2022/05/05 02:25:43;;;;;;;5.90;5.30;;;;;;;9.80;68.45;101775.50;2106600;28;20201;-66
2022/05/05 02:26:43;;;;;;;7.03;4.93;;;;;;;9.62;68.37;101746.25;2105759;28;20249;-67
2022/05/05 02:27:51;;;;;;;10.20;5.30;;;;;;;9.84;68.42;101776.25;2106191;28;20233;-67
2022/05/05 02:28:52;;;;;;;7.75;5.50;;;;;;;9.88;68.31;101776.25;2106926;28;20175;-67
2022/05/05 02:29:53;;;;;;;6.93;5.47;;;;;;;9.03;68.04;101650.34;2106594;28;20262;-67
2022/05/05 02:30:53;;;;;;;8.30;5.47;;;;;;;9.88;68.29;101777.03;2106181;28;20183;-67
2022/05/05 02:31:54;;;;;;;10.97;5.70;;;;;;;9.89;67.88;101784.16;2106378;28;20179;-66
2022/05/05 02:32:54;;;;;;;9.27;5.60;;;;;;;9.90;68.39;101784.94;2106827;28;20179;-67
2022/05/05 02:33:55;;;;;;;8.20;5.20;;;;;;;9.92;68.47;101777.81;2106618;28;20171;-67
2022/05/05 02:34:55;;;;;;;8.70;5.70;;;;;;;9.96;68.18;101777.81;2106262;28;20179;-67
2022/05/05 02:38:43;;;;;;;10.65;5.68;;;;;;;9.97;68.18;101766.34;2106663;28;20159;-67
2022/05/05 02:39:43;;;;;;;9.18;5.13;;;;;;;9.36;68.15;101672.81;2106740;28;20216;-66
2022/05/05 02:40:44;;;;;;;8.80;5.30;;;;;;;9.90;67.95;101760.81;2105710;28;20237;-66
2022/05/05 02:41:44;;;;;;;8.17;4.80;;;;;;;10.13;67.57;101786.09;2106464;28;20577;-66
2022/05/05 02:42:45;;;;;;;7.33;4.73;;;;;;;10.16;67.40;101790.03;2106596;28;20178;-67
2022/05/05 02:43:45;;;;;;;6.80;4.80;;;;;;;10.17;67.50;101794.38;2106315;28;20270;-66
2022/05/05 02:44:46;;;;;;;7.53;5.10;;;;;;;9.75;67.54;101728.84;2106020;28;20194;-66
2022/05/05 02:45:47;;;;;;;6.57;5.00;;;;;;;10.22;67.46;101793.97;2106278;28;20179;-66
2022/05/05 02:46:47;;;;;;;7.97;4.90;;;;;;;10.24;67.42;101789.59;2106399;28;20212;-66
2022/05/05 02:47:49;;;;;;;6.77;5.00;;;;;;;10.27;67.16;101794.34;2106391;28;20186;-66
2022/05/05 02:48:49;;;;;;;7.15;4.43;;;;;;;10.28;67.18;101793.16;2106701;28;20176;-66
2022/05/05 02:49:50;;;;;;;5.53;4.53;;;;;;;10.31;66.69;101792.34;2106486;28;20177;-67
2022/05/05 02:50:51;;;;;;;10.60;4.60;;;;;;;9.23;66.78;101637.66;2105934;28;20181;-67
2022/05/05 02:51:51;;;;;;;8.73;5.27;;;;;;;10.35;66.52;101800.66;2106522;28;20201;-67
2022/05/05 02:52:53;;;;;;;5.20;4.40;;;;;;;10.35;66.13;101798.66;2106616;28;20168;-67
2022/05/05 02:55:13;;;;;;;5.43;4.30;;;;;;;10.27;66.36;101799.91;2106181;28;20160;-67
2022/05/05 02:56:16;;;;;;;5.93;4.57;;;;;;;9.08;66.30;101630.59;2106354;28;20175;-67
2022/05/05 02:57:18;;;;;;;10.00;4.87;;;;;;;10.07;66.80;101786.91;2106496;28;20187;-67
2022/05/05 02:58:18;;;;;;;7.63;4.38;;;;;;;10.15;66.53;101789.25;2106264;28;20435;-67
2022/05/05 02:59:19;;;;;;;5.90;4.50;;;;;;;9.69;65.94;101719.34;2106678;28;20184;-67
2022/05/05 03:00:20;;;;;;;9.17;4.53;;;;;;;10.24;65.80;101803.47;2105713;28;20176;-66
2022/05/05 03:01:21;;;;;;;6.07;4.00;;;;;;;9.83;65.78;101733.16;2106579;28;20557;-67
2022/05/05 03:02:22;;;;;;;6.67;4.80;;;;;;;10.16;65.82;101779.75;2105462;28;20198;-67
2022/05/05 03:03:23;;;;;;;6.47;5.03;;;;;;;10.29;65.73;101805.81;2105914;28;20187;-67
2022/05/05 03:04:23;;;;;;;14.40;5.60;;;;;;;10.06;66.25;101775.06;2106018;28;20193;-66
2022/05/05 03:05:24;;;;;;;8.77;4.97;;;;;;;10.23;66.35;101812.16;2105173;28;20193;-66
2022/05/05 03:06:24;;;;;;;7.90;5.17;;;;;;;10.23;66.27;101812.97;2105416;28;20310;-66
2022/05/05 03:07:25;;;;;;;8.20;5.67;;;;;;;10.20;66.58;101807.44;2106281;28;20172;-66
2022/05/05 03:08:25;;;;;;;7.13;5.00;;;;;;;10.17;66.93;101808.22;2106068;28;20174;-67
2022/05/05 03:09:26;;;;;;;9.23;5.23;;;;;;;10.20;66.92;101810.22;2105796;28;20185;-67
2022/05/05 03:10:27;;;;;;;11.10;5.40;;;;;;;10.24;67.17;101811.00;2105019;28;20170;-66
2022/05/05 03:11:28;;;;;;;9.07;5.07;;;;;;;10.15;67.10;101794.78;2105825;28;20171;-66
2022/05/05 03:12:28;;;;;;;8.40;5.30;;;;;;;10.26;67.32;101816.91;2105352;28;20168;-66
2022/05/05 03:13:29;;;;;;;6.83;5.17;;;;;;;10.30;67.25;101814.94;2106521;28;20170;-67
2022/05/05 03:14:29;;;;;;;8.20;5.67;;;;;;;9.51;67.11;101699.25;2106070;28;20185;-67
2022/05/05 03:15:30;;;;;;;7.97;5.07;;;;;;;10.27;67.21;101802.66;2105919;28;20250;-66
2022/05/05 03:16:31;;;;;;;9.50;5.10;;;;;;;10.33;67.17;101814.09;2106116;28;20254;-66
2022/05/05 03:17:31;;;;;;;9.63;4.97;;;;;;;10.33;67.29;101825.19;2106276;28;20213;-67
2022/05/05 03:18:32;;;;;;;7.40;5.10;;;;;;;10.27;67.66;101813.75;2106345;28;20181;-66
2022/05/05 03:19:32;;;;;;;7.03;4.90;;;;;;;10.22;67.64;101816.13;2106418;28;20200;-66
2022/05/05 03:20:33;;;;;;;7.17;5.23;;;;;;;10.27;67.61;101824.03;2105419;28;20180;-67
2022/05/05 03:21:33;;;;;;;9.10;5.20;;;;;;;10.24;67.45;101814.53;2106543;28;20199;-67
2022/05/05 03:22:34;;;;;;;11.60;5.37;;;;;;;10.30;67.59;101824.00;2105825;28;20236;-67
2022/05/05 03:23:34;;;;;;;9.60;5.13;;;;;;;9.79;67.62;101748.97;2105265;28;20656;-67
2022/05/05 03:24:35;;;;;;;10.03;4.97;;;;;;;10.11;67.52;101785.72;2105190;28;20567;-66
2022/05/05 03:25:35;;;;;;;8.63;5.27;;;;;;;10.39;67.28;101835.47;2105967;28;20612;-67
2022/05/05 03:26:36;;;;;;;15.93;5.73;;;;;;;10.38;67.09;101831.13;2106208;28;20173;-67
2022/05/05 03:27:37;;;;;;;11.00;5.70;;;;;;;10.38;67.19;101844.19;2105471;28;20258;-67
2022/05/05 03:28:38;;;;;;;15.03;6.20;;;;;;;9.91;67.13;101775.44;2097221;28;20182;-67
2022/05/05 03:29:38;;;;;;;18.23;6.40;;;;;;;10.36;66.53;101838.25;2105693;28;20421;-66
2022/05/05 03:30:40;;;;;;;11.23;6.10;;;;;;;10.37;66.38;101839.81;2105371;28;20256;-67
2022/05/05 03:31:41;;;;;;;13.50;5.68;;;;;;;10.39;66.55;101845.75;2106261;28;20641;-67
2022/05/05 03:32:42;;;;;;;15.13;5.90;;;;;;;10.41;66.46;101841.38;2106089;28;20606;-66
2022/05/05 03:33:42;;;;;;;10.47;5.50;;;;;;;10.30;66.57;101824.00;2106237;28;20169;-67
2022/05/05 03:34:43;;;;;;;11.07;5.77;;;;;;;10.44;66.72;101845.34;2105665;28;20173;-66
2022/05/05 03:35:43;;;;;;;12.80;6.00;;;;;;;10.46;66.65;101843.75;2105922;28;20664;-66
2022/05/05 03:36:44;;;;;;;8.70;5.23;;;;;;;10.50;66.29;101855.59;2106325;28;20171;-66
2022/05/05 03:37:44;;;;;;;9.43;5.17;;;;;;;10.50;66.33;101852.84;2105772;28;20251;-66
2022/05/05 03:38:45;;;;;;;11.80;5.87;;;;;;;10.48;66.90;101843.34;2106304;28;20185;-66
2022/05/05 03:39:46;;;;;;;9.87;5.17;;;;;;;10.57;66.82;101849.25;2106219;28;20593;-66
2022/05/05 03:40:46;;;;;;;13.30;5.37;;;;;;;10.58;67.09;101848.84;2105462;28;20255;-66
2022/05/05 03:41:47;;;;;;;9.03;5.60;;;;;;;10.61;66.96;101864.66;2106197;28;20176;-66
2022/05/05 03:42:47;;;;;;;12.77;5.77;;;;;;;10.63;66.96;101851.22;2106103;28;20186;-66
2022/05/05 03:43:48;;;;;;;12.53;5.83;;;;;;;10.67;66.94;101854.72;2105831;28;20187;-66
2022/05/05 03:44:49;;;;;;;11.10;5.63;;;;;;;10.69;67.19;101857.91;2105556;28;20190;-66
2022/05/05 03:45:49;;;;;;;10.77;5.43;;;;;;;9.94;67.10;101752.50;2105866;28;20169;-66
2022/05/05 03:46:50;;;;;;;8.93;5.43;;;;;;;10.72;67.28;101861.84;2106271;28;20180;-66
2022/05/05 03:47:50;;;;;;;11.07;5.63;;;;;;;10.75;66.93;101864.59;2105869;28;20209;-66
2022/05/05 03:48:52;;;;;;;9.50;5.63;;;;;;;10.76;67.03;101868.19;2106216;28;20173;-66
2022/05/05 03:49:52;;;;;;;10.93;5.97;;;;;;;10.53;67.52;101829.88;2105361;28;20183;-66
2022/05/05 03:50:53;;;;;;;10.00;5.60;;;;;;;10.78;67.46;101866.59;2104862;28;20783;-66
2022/05/05 03:51:55;;;;;;;15.07;5.90;;;;;;;10.77;67.41;101864.22;2105966;28;20212;-66
2022/05/05 03:52:56;;;;;;;11.30;5.50;;;;;;;10.55;67.04;101844.09;2105901;28;20248;-66
2022/05/05 03:53:56;;;;;;;8.43;5.30;;;;;;;10.69;66.68;101868.19;2105829;28;20176;-66
2022/05/05 03:54:57;;;;;;;13.23;5.80;;;;;;;10.65;66.51;101861.91;2105509;28;20181;-66
2022/05/05 03:55:57;;;;;;;12.13;5.80;;;;;;;10.71;66.78;101872.16;2105765;28;20214;-66
2022/05/05 03:56:58;;;;;;;13.93;5.60;;;;;;;10.74;66.56;101870.56;2106130;28;20174;-67
2022/05/05 03:57:58;;;;;;;15.30;6.23;;;;;;;10.73;66.38;101869.78;2105811;28;20184;-66
2022/05/05 03:58:59;;;;;;;13.37;5.90;;;;;;;10.74;66.48;101865.00;2106131;28;20200;-66
2022/05/05 03:59:59;;;;;;;13.60;5.47;;;;;;;10.29;66.47;101794.72;2105874;28;20200;-66
2022/05/05 04:01:00;;;;;;;10.47;5.40;;;;;;;10.59;66.35;101853.19;2105519;28;20238;-66
2022/05/05 04:02:01;;;;;;;12.37;5.80;;;;;;;10.82;66.41;101870.09;2105835;28;20264;-66
2022/05/05 04:04:20;;;;;;;11.82;5.22;;;;;;;10.79;66.27;101865.38;2105567;28;20631;-67
2022/05/05 04:05:21;;;;;;;7.63;5.27;;;;;;;10.92;66.54;101879.59;2104942;28;20634;-66
2022/05/05 04:06:21;;;;;;;7.80;5.03;;;;;;;10.92;66.32;101882.34;2105153;28;20562;-65
2022/05/05 04:07:22;;;;;;;12.57;4.83;;;;;;;10.85;66.49;101885.94;2106147;28;20198;-64
2022/05/05 04:08:22;;;;;;;6.77;4.80;;;;;;;10.76;66.57;101876.50;2105660;28;20220;-66
2022/05/05 04:09:23;;;;;;;7.87;5.23;;;;;;;10.84;66.28;101887.16;2106081;28;20185;-67
2022/05/05 04:10:23;;;;;;;11.30;4.83;;;;;;;10.85;66.49;101891.50;2104995;28;20227;-66
2022/05/05 04:11:24;;;;;;;9.57;6.20;;;;;;;10.47;66.55;101836.22;2106179;28;20183;-66
2022/05/05 04:12:24;;;;;;;10.40;5.73;;;;;;;10.86;66.72;101889.53;2105806;28;20719;-66
2022/05/05 04:13:25;;;;;;;9.80;5.67;;;;;;;10.87;66.74;101886.31;2105770;28;20182;-67
2022/05/05 04:14:26;;;;;;;10.83;5.40;;;;;;;10.84;66.46;101881.59;2104220;28;20237;-66
2022/05/05 04:15:26;;;;;;;9.17;5.13;;;;;;;10.94;66.79;101886.31;2104250;28;20778;-66
2022/05/05 04:16:27;;;;;;;8.37;5.10;;;;;;;10.91;66.50;101880.78;2104960;28;20189;-67
2022/05/05 04:17:27;;;;;;;10.50;5.10;;;;;;;10.51;66.69;101823.16;2105761;28;20181;-66
2022/05/05 04:18:28;;;;;;;11.63;6.03;;;;;;;10.59;66.55;101827.44;2104995;28;20673;-66
2022/05/05 04:19:28;;;;;;;12.27;5.57;;;;;;;11.02;66.62;101892.59;2105700;28;20655;-66
2022/05/05 04:20:29;;;;;;;12.27;5.63;;;;;;;11.03;66.44;101894.19;2104832;28;20727;-66
2022/05/05 04:21:30;;;;;;;11.07;5.97;;;;;;;11.06;66.62;101888.59;2106010;28;20623;-66
2022/05/05 04:22:31;;;;;;;10.30;4.90;;;;;;;11.07;66.53;101889.41;2105340;28;20178;-67
2022/05/05 04:23:31;;;;;;;11.23;5.63;;;;;;;11.17;66.20;101900.44;2105647;28;20467;-66
2022/05/05 04:24:32;;;;;;;8.27;5.50;;;;;;;11.19;66.27;101902.81;2105095;28;20468;-66
2022/05/05 04:25:33;;;;;;;10.17;6.53;;;;;;;11.22;66.16;101904.78;2104874;28;20608;-66
2022/05/05 04:26:34;;;;;;;14.55;6.72;;;;;;;11.23;66.54;101912.69;2105516;28;20185;-66
2022/05/05 04:27:39;;;;;;;12.53;6.97;;;;;;;11.25;66.12;101909.50;2105698;28;20203;-66
2022/05/05 04:28:46;;;;;;;12.63;6.60;;;;;;;10.63;66.04;101815.16;2105576;28;20164;-66
2022/05/05 04:29:47;;;;;;;12.25;9.73;;;;;;;11.26;66.34;101914.66;2105727;28;20421;-67
2022/05/05 04:30:48;;;;;;;14.80;8.10;;;;;;;10.76;66.15;101818.28;2104723;28;20267;-66
2022/05/05 04:31:49;;;;;;;11.00;7.00;;;;;;;11.35;66.10;101914.19;2105616;28;20231;-66
2022/05/05 04:32:49;;;;;;;9.03;6.13;;;;;;;11.40;66.08;101914.56;2105713;28;20693;-66
2022/05/05 04:33:50;;;;;;;7.20;5.87;;;;;;;11.42;65.74;101914.16;2105408;28;20213;-66
2022/05/05 04:34:50;;;;;;;8.23;7.43;;;;;;;11.43;66.06;101910.97;2104923;28;20177;-66
2022/05/05 04:35:51;;;;;;;10.53;7.33;;;;;;;11.39;66.01;101907.44;2104780;28;20673;-66
2022/05/05 04:36:53;;;;;;;10.53;5.93;;;;;;;11.45;65.79;101914.13;2105411;28;20260;-66
2022/05/05 04:37:53;;;;;;;9.07;6.20;;;;;;;11.49;65.62;101914.09;2105280;28;20519;-67
2022/05/05 04:38:54;;;;;;;7.93;5.50;;;;;;;11.53;65.71;101921.19;2104534;28;20430;-66
2022/05/05 04:39:55;;;;;;;9.83;5.63;;;;;;;11.55;65.43;101920.78;2104345;28;20181;-67
2022/05/05 04:40:55;;;;;;;20.10;7.00;;;;;;;11.58;65.57;101918.00;2103185;28;20174;-66
2022/05/05 04:41:56;;;;;;;10.07;6.70;;;;;;;10.89;65.48;101825.72;2097920;28;20183;-67
2022/05/05 04:42:57;;;;;;;8.07;5.57;;;;;;;11.14;65.55;101847.75;2097611;28;20270;-67
2022/05/05 04:43:57;;;;;;;7.97;5.23;;;;;;;11.66;65.57;101925.13;2103257;28;20182;-67
2022/05/05 04:44:58;;;;;;;10.23;5.90;;;;;;;11.71;65.49;101923.88;2099425;28;20182;-67
2022/05/05 04:45:58;;;;;;;7.00;5.47;;;;;;;11.71;65.60;101923.88;2103875;28;20277;-67
2022/05/05 04:47:00;;;;;;;12.83;6.10;;;;;;;11.72;65.37;101926.25;2103704;28;20212;-67
2022/05/05 04:48:00;;;;;;;10.20;5.97;;;;;;;11.75;65.56;101931.00;2105004;28;20171;-67
2022/05/05 04:49:01;;;;;;;8.90;5.90;;;;;;;11.18;65.74;101838.19;2105123;28;20409;-67
2022/05/05 04:50:01;;;;;;;10.97;7.57;;;;;;;11.82;65.63;101935.69;2104743;28;20184;-67
2022/05/05 04:51:02;;;;;;;17.67;12.50;;;;;;;11.85;65.78;101932.09;2104947;28;20177;-67
2022/05/05 04:52:03;;;;;;;11.90;6.63;;;;;;;11.28;65.51;101845.66;2104709;28;20224;-67
2022/05/05 04:53:05;;;;;;;15.37;9.80;;;;;;;11.85;65.82;101924.56;2104633;28;20170;-67
2022/05/05 04:54:05;;;;;;;14.67;8.70;;;;;;;11.47;65.97;101858.22;2097903;28;20458;-67
2022/05/05 04:55:06;;;;;;;13.83;6.73;;;;;;;11.91;66.00;101934.03;2103129;28;20407;-66
2022/05/05 04:56:10;;;;;;;10.97;6.37;;;;;;;11.83;65.95;101904.72;2099757;28;20267;-67